Time;durP1;ratioP1;P1;durP2;ratioP2;P2;SDS_P1;SDS_P2;PMS_P1;PMS_P2;Temp;Humidity;BMP_temperature;BMP_pressure;BME280_temperature;BME280_humidity;BME280_pressure;Samples;Min_cycle;Max_cycle;Signal;HPM_P1;HPM_P2
2023/01/13 00:01:13;;;;;;;2.85;2.00;;;;;;;7.93;100.00;99914.44;5074079;28;20039;-82
2023/01/13 00:03:40;;;;;;;3.15;1.70;;;;;;;7.83;100.00;99893.81;5091848;28;20055;-82
2023/01/13 00:06:06;;;;;;;3.63;1.80;;;;;;;7.93;100.00;99897.38;5073907;28;20036;-75
2023/01/13 00:08:35;;;;;;;3.42;1.90;;;;;;;7.93;100.00;99892.47;5057636;28;20099;-75
2023/01/13 00:11:23;;;;;;;2.28;1.52;;;;;;;7.97;100.00;99895.13;5073746;28;20076;-74
2023/01/13 00:13:53;;;;;;;3.53;1.67;;;;;;;7.85;100.00;99879.13;5074630;28;20384;-74
2023/01/13 00:16:20;;;;;;;2.03;1.45;;;;;;;7.93;100.00;99894.53;5075166;28;20070;-73
2023/01/13 00:18:46;;;;;;;3.33;2.10;;;;;;;7.90;100.00;99884.94;5076453;28;20039;-75
2023/01/13 00:21:17;;;;;;;4.35;2.20;;;;;;;7.94;100.00;99896.09;5096572;28;20024;-74
2023/01/13 00:23:43;;;;;;;1.85;1.38;;;;;;;7.88;100.00;99884.59;5061611;28;20032;-75
2023/01/13 00:26:15;;;;;;;2.33;1.60;;;;;;;7.83;100.00;99893.03;5077549;28;20118;-75
2023/01/13 00:28:42;;;;;;;2.80;1.65;;;;;;;7.85;100.00;99884.81;5095712;28;20028;-74
2023/01/13 00:31:22;;;;;;;2.92;1.50;;;;;;;7.81;100.00;99872.81;5095699;28;20020;-74
2023/01/13 00:33:48;;;;;;;2.55;1.90;;;;;;;7.89;100.00;99888.25;5095261;28;20122;-75
2023/01/13 00:36:14;;;;;;;2.97;1.73;;;;;;;7.98;100.00;99885.31;5077087;28;20119;-75
2023/01/13 00:38:41;;;;;;;2.20;1.70;;;;;;;8.02;100.00;99891.63;5060555;28;20042;-75
2023/01/13 00:41:15;;;;;;;2.38;1.40;;;;;;;8.01;100.00;99892.91;5077218;28;20481;-75
2023/01/13 00:43:41;;;;;;;1.35;1.25;;;;;;;7.97;100.00;99887.38;5094970;28;20026;-74
2023/01/13 00:46:09;;;;;;;4.57;1.77;;;;;;;7.97;100.00;99886.59;5077012;28;20028;-75
2023/01/13 00:48:35;;;;;;;3.03;1.75;;;;;;;7.88;100.00;99870.38;5094824;28;20028;-75
2023/01/13 00:51:05;;;;;;;2.78;1.45;;;;;;;8.00;100.00;99885.66;5059892;28;20205;-76
2023/01/13 00:53:38;;;;;;;4.47;1.77;;;;;;;8.04;100.00;99883.41;5076888;28;20034;-76
2023/01/13 00:56:24;;;;;;;1.83;1.40;;;;;;;7.95;100.00;99872.09;5077111;28;20063;-74
2023/01/13 00:58:51;;;;;;;2.03;1.73;;;;;;;7.91;100.00;99875.13;5076894;28;20106;-74
2023/01/13 01:01:20;;;;;;;3.58;1.45;;;;;;;7.92;100.00;99879.53;5095167;28;20107;-74
2023/01/13 01:03:47;;;;;;;1.85;1.35;;;;;;;7.88;100.00;99869.59;5061274;28;20469;-73
2023/01/13 01:06:23;;;;;;;3.10;1.63;;;;;;;7.95;100.00;99872.88;5078105;28;20186;-76
2023/01/13 01:08:50;;;;;;;3.75;1.83;;;;;;;7.93;100.00;99874.63;5095935;28;20027;-75
2023/01/13 01:11:19;;;;;;;2.03;1.80;;;;;;;7.93;100.00;99866.88;5077175;28;20034;-76
2023/01/13 01:13:45;;;;;;;3.95;1.80;;;;;;;7.91;100.00;99854.44;5095685;28;20496;-77
2023/01/13 01:16:14;;;;;;;2.53;1.52;;;;;;;8.02;100.00;99859.53;5060887;28;20026;-74
2023/01/13 01:18:43;;;;;;;1.95;1.75;;;;;;;8.04;100.00;99862.69;5078117;28;20027;-75
2023/01/13 01:21:10;;;;;;;2.15;1.20;;;;;;;8.00;100.00;99865.72;5077318;28;20488;-75
2023/01/13 01:23:37;;;;;;;3.75;1.70;;;;;;;7.93;100.00;99868.94;5077471;28;20035;-75
2023/01/13 01:26:19;;;;;;;2.65;1.85;;;;;;;7.83;100.00;99851.16;5095005;28;20052;-74
2023/01/13 01:28:45;;;;;;;2.50;1.92;;;;;;;7.93;100.00;99846.97;5077233;28;20084;-74
2023/01/13 01:31:17;;;;;;;2.50;1.27;;;;;;;7.91;100.00;99855.22;5077663;28;20127;-73
2023/01/13 01:33:45;;;;;;;;;;;;;;;7.97;100.00;99850.41;5061036;28;20173;-72
2023/01/13 01:36:13;;;;;;;3.63;1.67;;;;;;;7.91;100.00;99841.00;5095422;28;19908;-73
2023/01/13 01:38:38;;;;;;;2.78;1.50;;;;;;;8.03;100.00;99838.34;5077106;28;20024;-75
2023/01/13 01:41:05;;;;;;;1.55;1.40;;;;;;;8.03;100.00;99841.19;5060355;28;20392;-74
2023/01/13 01:43:58;;;;;;;2.30;1.40;;;;;;;8.01;100.00;99830.31;5077175;28;20119;-74
2023/01/13 01:46:28;;;;;;;2.00;1.77;;;;;;;8.00;100.00;99825.91;5077298;28;20030;-74
2023/01/13 01:49:20;;;;;;;2.33;1.67;;;;;;;8.01;100.00;99816.09;5095285;28;20020;-74
2023/01/13 01:51:51;;;;;;;3.78;1.58;;;;;;;8.04;100.00;99823.66;5081720;28;20110;-73
2023/01/13 01:54:26;;;;;;;3.42;1.40;;;;;;;7.97;100.00;99807.72;5095302;28;20030;-73
2023/01/13 01:56:52;;;;;;;1.77;1.58;;;;;;;8.00;100.00;99811.66;5076997;28;20020;-73
2023/01/13 01:59:19;;;;;;;1.98;1.15;;;;;;;7.94;100.00;99803.03;5094787;28;20019;-73
2023/01/13 02:01:46;;;;;;;1.50;1.10;;;;;;;7.78;100.00;99788.44;5094919;28;20114;-73
2023/01/13 02:04:27;;;;;;;4.90;1.50;;;;;;;7.88;100.00;99804.19;5076759;28;20031;-74
2023/01/13 02:06:55;;;;;;;1.30;1.20;;;;;;;7.78;100.00;99797.00;5076818;28;20480;-74
2023/01/13 02:09:28;;;;;;;1.80;1.35;;;;;;;7.79;100.00;99807.09;5060455;28;20028;-74
2023/01/13 02:14:38;;;;;;;1.83;1.35;;;;;;;7.84;100.00;99800.72;5080789;28;20389;-74
2023/01/13 02:17:22;;;;;;;1.35;1.08;;;;;;;7.81;100.00;99793.97;5060061;28;20032;-75
2023/01/13 02:20:13;;;;;;;3.28;1.58;;;;;;;7.79;100.00;99790.81;5094093;28;20453;-74
2023/01/13 02:24:52;;;;;;;2.30;1.50;;;;;;;7.83;100.00;99790.63;5093917;28;20052;-74
2023/01/13 02:26:20;;;;;;;3.67;1.50;;;;;;;7.91;100.00;99794.69;5092776;28;20030;-73
2023/01/13 02:32:29;;;;;;;3.25;1.50;;;;;;;7.93;100.00;99797.81;4991623;28;20053;-71
2023/01/13 02:35:09;;;;;;;2.72;1.15;;;;;;;8.03;100.00;99804.19;5074909;28;20031;-73
2023/01/13 02:37:42;;;;;;;2.45;1.55;;;;;;;8.01;100.00;99799.03;5093313;28;20035;-73
2023/01/13 02:40:19;;;;;;;2.13;1.45;;;;;;;8.10;100.00;99798.16;5075107;28;20028;-72
2023/01/13 02:46:08;;;;;;;1.85;1.10;;;;;;;8.18;100.00;99788.75;5093294;28;20088;-73
2023/01/13 02:48:35;;;;;;;1.25;0.90;;;;;;;8.20;100.00;99782.59;5075021;28;20106;-73
2023/01/13 02:51:04;;;;;;;2.67;1.52;;;;;;;8.28;100.00;99792.28;5075563;28;20115;-72
2023/01/13 02:53:45;;;;;;;4.68;1.30;;;;;;;8.31;100.00;99794.19;5059280;28;20070;-71
2023/01/13 02:56:14;;;;;;;1.90;0.75;;;;;;;8.33;100.00;99788.78;5076094;28;20019;-72
2023/01/13 02:58:49;;;;;;;3.10;1.17;;;;;;;8.33;100.00;99792.41;5075876;28;20043;-72
2023/01/13 03:01:16;;;;;;;2.08;1.00;;;;;;;8.38;100.00;99791.72;5093899;28;20028;-72
2023/01/13 03:03:43;;;;;;;1.70;1.20;;;;;;;8.37;100.00;99790.13;5092863;28;20032;-71
2023/01/13 03:06:24;;;;;;;2.33;1.05;;;;;;;8.32;100.00;99787.19;5075884;28;20024;-72
2023/01/13 03:09:07;;;;;;;3.42;1.55;;;;;;;8.36;100.00;99793.50;5093770;28;20020;-72
2023/01/13 03:12:19;;;;;;;2.22;1.35;;;;;;;8.35;100.00;99791.91;5093802;28;20505;-72
2023/01/13 03:15:27;;;;;;;1.17;0.80;;;;;;;8.37;100.00;99787.28;5072264;28;20040;-73
2023/01/13 03:18:27;;;;;;;1.05;0.93;;;;;;;8.36;100.00;99774.34;5057104;28;20039;-72
2023/01/13 03:21:18;;;;;;;1.98;1.48;;;;;;;8.39;100.00;99779.06;5069632;28;20440;-73
2023/01/13 03:24:12;;;;;;;1.73;1.00;;;;;;;8.35;100.00;99775.63;5075722;28;20118;-72
2023/01/13 03:26:56;;;;;;;1.25;1.13;;;;;;;8.28;100.00;99778.84;5093427;28;20044;-72
2023/01/13 03:29:36;;;;;;;0.90;0.85;;;;;;;8.28;100.00;99781.69;5076093;28;20039;-73
2023/01/13 03:32:13;;;;;;;4.65;1.40;;;;;;;8.23;100.00;99788.06;5075601;28;20035;-71
2023/01/13 03:34:54;;;;;;;2.58;1.20;;;;;;;8.20;100.00;99786.22;5075510;28;20028;-72
2023/01/13 03:37:25;;;;;;;2.53;1.10;;;;;;;8.16;100.00;99784.84;5075664;28;20516;-73
2023/01/13 03:39:54;;;;;;;1.48;1.10;;;;;;;8.19;100.00;99793.19;5075444;28;20035;-73
2023/01/13 03:42:23;;;;;;;2.17;1.13;;;;;;;8.19;100.00;99786.69;5059085;28;20109;-73
2023/01/13 03:45:04;;;;;;;3.38;1.25;;;;;;;8.21;100.00;99779.22;5075671;28;20050;-72
2023/01/13 03:47:41;;;;;;;3.73;1.30;;;;;;;8.21;100.00;99779.22;5075686;28;20039;-72
2023/01/13 03:50:27;;;;;;;2.30;1.17;;;;;;;8.16;100.00;99773.47;5075229;28;20024;-72
2023/01/13 03:53:25;;;;;;;1.98;1.38;;;;;;;8.16;100.00;99777.06;5095508;28;20024;-72
2023/01/13 03:55:54;;;;;;;3.25;0.90;;;;;;;8.15;100.00;99780.38;5096188;28;20044;-72
2023/01/13 03:58:30;;;;;;;1.50;0.88;;;;;;;8.18;100.00;99773.75;5063048;28;20040;-73
2023/01/13 04:01:15;;;;;;;2.40;0.90;;;;;;;8.19;100.00;99775.31;5097446;28;20456;-72
2023/01/13 04:04:01;;;;;;;3.20;1.10;;;;;;;8.22;100.00;99774.31;5078817;28;20028;-72
2023/01/13 04:06:48;;;;;;;2.67;1.10;;;;;;;8.23;100.00;99767.38;5096996;28;20378;-73
2023/01/13 04:09:33;;;;;;;1.45;0.77;;;;;;;8.24;100.00;99766.09;5097062;28;20027;-73
2023/01/13 04:12:22;;;;;;;3.65;1.40;;;;;;;8.24;100.00;99766.09;5062170;28;20036;-72
2023/01/13 04:14:48;;;;;;;2.10;0.93;;;;;;;8.21;100.00;99759.31;5062838;28;20032;-72
2023/01/13 04:17:15;;;;;;;1.17;1.08;;;;;;;8.15;100.00;99764.09;5078605;28;20043;-72
2023/01/13 04:19:41;;;;;;;3.60;1.40;;;;;;;8.18;100.00;99760.31;5078964;28;20036;-72
2023/01/13 04:22:07;;;;;;;1.75;1.20;;;;;;;8.21;100.00;99765.00;5097019;28;20380;-72
2023/01/13 04:24:32;;;;;;;1.35;1.17;;;;;;;8.16;100.00;99757.16;5096754;28;20024;-72
2023/01/13 04:26:59;;;;;;;1.73;1.10;;;;;;;8.22;100.00;99771.47;5074245;28;20051;-72
2023/01/13 04:29:25;;;;;;;1.50;1.20;;;;;;;8.24;100.00;99764.03;5075257;28;20025;-72
2023/01/13 04:31:52;;;;;;;2.40;1.30;;;;;;;8.31;100.00;99762.88;5075389;28;20040;-73
2023/01/13 04:34:18;;;;;;;1.23;1.10;;;;;;;8.29;100.00;99760.50;5076805;28;20024;-73
2023/01/13 04:36:45;;;;;;;2.50;1.33;;;;;;;8.30;100.00;99753.53;5076411;28;20028;-73
2023/01/13 04:39:11;;;;;;;5.60;1.17;;;;;;;8.22;100.00;99737.31;5076595;28;20025;-72
2023/01/13 04:44:22;;;;;;;1.92;1.10;;;;;;;8.30;100.00;99752.75;5076369;28;20040;-72
2023/01/13 04:46:49;;;;;;;0.95;0.90;;;;;;;8.28;100.00;99741.06;5076301;28;20082;-73
2023/01/13 04:49:14;;;;;;;1.80;1.00;;;;;;;8.32;100.00;99744.50;5075130;28;20024;-72
2023/01/13 04:51:41;;;;;;;3.80;1.38;;;;;;;8.32;100.00;99745.28;5076194;28;20028;-72
2023/01/13 04:54:16;;;;;;;2.47;1.55;;;;;;;8.37;100.00;99746.66;5076029;28;20028;-74
2023/01/13 04:56:41;;;;;;;1.88;1.77;;;;;;;8.36;100.00;99737.31;5076004;28;20031;-74
2023/01/13 04:59:09;;;;;;;3.17;1.58;;;;;;;8.42;100.00;99736.63;5075827;28;20036;-74
2023/01/13 05:01:37;;;;;;;1.65;0.85;;;;;;;8.44;100.00;99742.63;5058096;28;20032;-75
2023/01/13 05:04:03;;;;;;;1.55;1.10;;;;;;;8.39;100.00;99746.97;5057326;28;20032;-75
2023/01/13 05:06:29;;;;;;;3.75;1.50;;;;;;;8.39;100.00;99746.97;5075860;28;20024;-74
2023/01/13 05:08:57;;;;;;;6.35;1.90;;;;;;;8.31;100.00;99745.78;5076043;28;20051;-75
2023/01/13 05:17:00;;;;;;;3.17;1.85;;;;;;;8.26;100.00;99747.25;5075915;28;20044;-75
2023/01/13 05:19:39;;;;;;;4.07;1.73;;;;;;;8.25;100.00;99745.69;5058485;28;20024;-75
2023/01/13 05:27:35;;;;;;;1.58;1.20;;;;;;;8.23;100.00;99747.44;5090737;28;20121;-76
2023/01/13 05:30:03;;;;;;;4.50;1.00;;;;;;;8.23;100.00;99745.38;5095611;28;20031;-74
2023/01/13 05:32:30;;;;;;;2.35;1.30;;;;;;;8.22;100.00;99745.88;5094525;28;20111;-75
2023/01/13 05:34:56;;;;;;;2.85;1.52;;;;;;;8.18;100.00;99746.06;5095384;28;20028;-76
2023/01/13 05:37:23;;;;;;;2.63;1.10;;;;;;;8.18;100.00;99746.06;5060770;28;20027;-76
2023/01/13 05:45:19;;;;;;;2.83;1.60;;;;;;;8.16;100.00;99742.91;5074848;28;20043;-75
2023/01/13 05:47:44;;;;;;;5.22;1.85;;;;;;;8.15;100.00;99746.25;5091556;28;20044;-75
2023/01/13 05:50:14;;;;;;;2.08;1.33;;;;;;;8.15;100.00;99752.72;5077216;28;20427;-75
2023/01/13 05:52:42;;;;;;;1.98;1.45;;;;;;;8.23;100.00;99753.13;5077315;28;20032;-72
2023/01/13 05:55:12;;;;;;;2.85;1.48;;;;;;;8.24;100.00;99744.13;5043208;28;20067;-74
2023/01/13 05:57:38;;;;;;;4.63;1.38;;;;;;;8.23;100.00;99741.75;5060174;28;20027;-74
2023/01/13 06:00:05;;;;;;;5.20;2.33;;;;;;;8.19;100.00;99738.31;5094889;28;20526;-77
2023/01/13 06:02:31;;;;;;;4.70;2.00;;;;;;;8.07;100.00;99733.66;5094862;28;20024;-77
2023/01/13 06:04:57;;;;;;;3.70;1.10;;;;;;;8.09;100.00;99740.44;5094961;28;20028;-74
2023/01/13 06:07:24;;;;;;;3.80;1.17;;;;;;;8.16;100.00;99756.38;5076556;28;20088;-74
2023/01/13 06:09:51;;;;;;;3.75;1.25;;;;;;;8.10;100.00;99733.50;5095126;28;20024;-76
2023/01/13 06:12:16;;;;;;;1.20;1.10;;;;;;;7.96;100.00;99722.88;5094970;28;20058;-76
2023/01/13 06:14:43;;;;;;;2.30;1.20;;;;;;;8.11;100.00;99737.91;5096453;28;20406;-76
2023/01/13 06:17:12;;;;;;;2.80;1.10;;;;;;;8.18;100.00;99745.28;5094062;28;20103;-73
2023/01/13 06:19:38;;;;;;;1.48;1.25;;;;;;;8.16;100.00;99751.44;5077108;28;20457;-77
2023/01/13 06:22:26;;;;;;;22.23;3.08;;;;;;;8.12;100.00;99742.31;5095171;28;20444;-79
2023/01/13 06:24:52;;;;;;;3.50;1.10;;;;;;;8.14;100.00;99748.31;5047025;28;20032;-81
2023/01/13 06:27:20;;;;;;;3.50;1.00;;;;;;;8.15;100.00;99749.88;5063257;28;20063;-79
2023/01/13 06:29:47;;;;;;;2.00;1.00;;;;;;;8.14;100.00;99745.44;5059937;28;20057;-80
2023/01/13 06:32:25;;;;;;;2.10;1.15;;;;;;;8.08;100.00;99729.53;5072426;28;20028;-80
2023/01/13 06:34:57;;;;;;;2.10;1.20;;;;;;;8.11;100.00;99737.91;5054791;28;20123;-78
2023/01/13 06:37:28;;;;;;;2.15;0.95;;;;;;;8.19;100.00;99755.41;5055565;28;20040;-80
2023/01/13 06:39:57;;;;;;;2.55;1.33;;;;;;;8.15;100.00;99747.03;5054817;28;20033;-80
2023/01/13 06:45:22;;;;;;;2.13;0.90;;;;;;;8.14;100.00;99742.59;5057992;28;20070;-81
2023/01/13 06:47:48;;;;;;;2.10;1.10;;;;;;;8.18;100.00;99746.06;5083404;28;20700;-75
2023/01/13 06:50:17;;;;;;;10.18;1.23;;;;;;;8.15;100.00;99738.50;5081220;28;20028;-74
2023/01/13 06:52:45;;;;;;;1.23;0.90;;;;;;;8.27;100.00;99748.81;5045654;28;20069;-73
2023/01/13 06:55:11;;;;;;;3.17;1.23;;;;;;;8.28;100.00;99749.59;5077172;28;20036;-72
2023/01/13 06:57:56;;;;;;;1.90;0.85;;;;;;;8.27;100.00;99743.13;5062994;28;20036;-74
2023/01/13 07:00:24;;;;;;;3.67;0.93;;;;;;;8.35;100.00;99746.38;5062010;28;20028;-78
2023/01/13 07:02:52;;;;;;;1.65;0.80;;;;;;;8.36;100.00;99745.88;5047888;28;20074;-78
2023/01/13 07:05:20;;;;;;;1.55;0.93;;;;;;;8.42;100.00;99745.19;5097477;28;20564;-74
2023/01/13 07:07:46;;;;;;;2.25;0.75;;;;;;;8.40;100.00;99748.53;5071264;28;20040;-77
2023/01/13 07:10:20;;;;;;;1.25;0.90;;;;;;;8.36;100.00;99747.94;5093513;28;20377;-76
2023/01/13 07:15:35;;;;;;;2.50;0.95;;;;;;;8.41;100.00;99747.22;5058778;28;20090;-78
2023/01/13 07:18:21;;;;;;;3.45;1.00;;;;;;;8.44;100.00;99751.97;5091957;28;20122;-77
2023/01/13 07:21:09;;;;;;;2.60;1.75;;;;;;;8.42;100.00;99745.19;5076089;28;20028;-77
2023/01/13 07:23:45;;;;;;;2.42;1.27;;;;;;;8.37;100.00;99753.13;5091889;28;20107;-80
2023/01/13 07:26:13;;;;;;;8.57;2.20;;;;;;;8.35;100.00;99752.06;5075778;28;20059;-80
2023/01/13 07:28:40;;;;;;;8.10;2.15;;;;;;;8.31;100.00;99749.41;5058658;28;20377;-81
2023/01/13 07:31:16;;;;;;;2.88;1.40;;;;;;;8.35;100.00;99752.06;5057178;28;20036;-79
2023/01/13 07:33:43;;;;;;;3.60;1.00;;;;;;;8.30;100.00;99747.84;5076184;28;20080;-78
2023/01/13 07:36:09;;;;;;;2.28;1.00;;;;;;;8.44;100.00;99759.72;5058567;28;20465;-75
2023/01/13 07:38:38;;;;;;;3.38;1.20;;;;;;;8.48;100.00;99755.38;5093380;28;20024;-75
2023/01/13 07:43:50;;;;;;;2.90;1.15;;;;;;;8.45;100.00;99750.69;5063802;28;20165;-77
2023/01/13 07:46:17;;;;;;;3.42;1.45;;;;;;;8.47;100.00;99744.47;5093462;28;20440;-76
2023/01/13 07:48:43;;;;;;;3.15;1.20;;;;;;;8.54;100.00;99746.94;5075399;28;20477;-75
2023/01/13 07:51:17;;;;;;;3.53;1.42;;;;;;;8.57;100.00;99754.50;5058465;28;20031;-76
2023/01/13 07:53:45;;;;;;;4.25;1.30;;;;;;;8.61;100.00;99752.22;5074278;28;20027;-74
2023/01/13 07:56:19;;;;;;;2.60;1.10;;;;;;;8.65;100.00;99752.84;5073593;28;20020;-73
2023/01/13 07:58:49;;;;;;;3.38;1.20;;;;;;;8.70;100.00;99747.22;5079647;28;20027;-76
2023/01/13 08:01:16;;;;;;;6.22;1.20;;;;;;;8.74;100.00;99750.66;5055026;28;20032;-75
2023/01/13 08:03:41;;;;;;;7.38;1.10;;;;;;;8.71;100.00;99728.84;5060277;28;20021;-82
2023/01/13 08:06:10;;;;;;;3.33;1.45;;;;;;;8.76;100.00;99733.03;5072573;28;20039;-74
2023/01/13 08:08:36;;;;;;;3.30;1.33;;;;;;;8.86;100.00;99736.56;5092888;28;20028;-79
2023/01/13 08:11:03;;;;;;;2.53;1.38;;;;;;;8.96;100.00;99747.34;5067542;28;20036;-79
2023/01/13 08:13:30;;;;;;;5.85;1.70;;;;;;;9.00;100.00;99741.47;5073305;28;20054;-82
2023/01/13 08:16:08;;;;;;;6.95;1.80;;;;;;;9.01;100.00;99746.63;5038738;28;20032;-81
2023/01/13 08:18:34;;;;;;;2.08;1.23;;;;;;;9.02;100.00;99736.81;5055868;28;20120;-79
2023/01/13 08:21:11;;;;;;;5.63;1.65;;;;;;;9.10;100.00;99740.81;5073175;28;20017;-80
2023/01/13 08:23:39;;;;;;;1.40;1.05;;;;;;;9.04;100.00;99724.94;5040422;28;20032;-78
2023/01/13 08:26:09;;;;;;;14.70;2.38;;;;;;;9.23;100.00;99758.38;5059174;28;20103;-82
2023/01/13 08:28:36;;;;;;;6.75;1.80;;;;;;;9.22;100.00;99753.16;5074407;28;20029;-72
2023/01/13 08:31:04;;;;;;;4.28;1.48;;;;;;;9.29;100.00;99740.56;5054966;28;20420;-72
2023/01/13 08:33:30;;;;;;;3.30;1.38;;;;;;;9.25;100.00;99763.56;5055538;28;20033;-73
2023/01/13 08:35:56;;;;;;;3.38;1.25;;;;;;;9.33;100.00;99753.31;5072693;28;20384;-73
2023/01/13 08:38:22;;;;;;;3.05;1.10;;;;;;;9.27;100.00;99750.38;5038084;28;20059;-71
2023/01/13 08:40:47;;;;;;;4.90;2.17;;;;;;;9.41;100.00;99757.31;5058024;28;20443;-73
2023/01/13 08:43:28;;;;;;;4.97;2.00;;;;;;;9.54;100.00;99756.97;5058059;28;20028;-71
2023/01/13 08:46:03;;;;;;;5.82;1.88;;;;;;;9.65;100.00;99755.03;5076345;28;20052;-77
2023/01/13 08:48:43;;;;;;;2.80;1.90;;;;;;;9.74;100.00;99761.91;5076009;28;20024;-72
2023/01/13 08:51:10;;;;;;;5.07;1.77;;;;;;;9.74;100.00;99764.75;5092340;28;20056;-70
2023/01/13 08:53:35;;;;;;;4.88;1.50;;;;;;;9.75;100.00;99755.69;5054706;28;20086;-70
2023/01/13 08:56:05;;;;;;;4.35;1.45;;;;;;;9.81;100.00;99742.28;5061938;28;20052;-69
2023/01/13 08:58:32;;;;;;;6.40;1.83;;;;;;;9.90;100.00;99749.88;5074138;28;20377;-71
2023/01/13 09:01:06;;;;;;;2.63;1.50;;;;;;;9.93;100.00;99757.47;5066832;28;20047;-72
2023/01/13 09:03:33;;;;;;;1.77;1.15;;;;;;;9.93;100.00;99760.31;5095917;28;20025;-71
2023/01/13 09:05:59;;;;;;;3.20;1.20;;;;;;;9.93;100.00;99760.31;5077489;28;20511;-72
2023/01/13 09:08:26;;;;;;;4.22;1.40;;;;;;;9.84;100.00;99761.22;5078033;28;20016;-74
2023/01/13 09:10:52;;;;;;;1.60;1.10;;;;;;;9.88;100.00;99758.97;5060650;28;20020;-75
2023/01/13 09:13:36;;;;;;;1.65;1.30;;;;;;;9.92;100.00;99768.09;5077163;28;20032;-75
2023/01/13 09:16:03;;;;;;;4.10;1.15;;;;;;;9.94;100.00;99770.44;5092584;28;20052;-73
2023/01/13 09:18:28;;;;;;;2.28;2.08;;;;;;;9.92;100.00;99758.75;5080332;28;20029;-74
2023/01/13 09:20:54;;;;;;;7.20;1.30;;;;;;;9.91;100.00;99765.72;5074006;28;20055;-77
2023/01/13 09:23:22;;;;;;;1.77;1.38;;;;;;;9.86;100.00;99770.09;5057308;28;20408;-74
2023/01/13 09:25:51;;;;;;;5.15;1.70;;;;;;;9.82;100.00;99772.38;5074813;28;20024;-74
2023/01/13 09:28:16;;;;;;;2.70;1.05;;;;;;;9.81;100.00;99758.59;5056819;28;20017;-73
2023/01/13 09:30:44;;;;;;;8.75;1.35;;;;;;;9.79;100.00;99764.03;5074553;28;20115;-72
2023/01/13 09:35:59;;;;;;;3.97;1.50;;;;;;;9.63;100.00;99773.94;5075231;28;20063;-72
2023/01/13 09:38:48;;;;;;;3.33;1.23;;;;;;;9.63;100.00;99774.72;5074887;28;20050;-76
2023/01/13 09:44:11;;;;;;;5.03;1.38;;;;;;;9.59;100.00;99765.56;5075006;28;20051;-75
2023/01/13 09:46:46;;;;;;;;;;;;;;;9.62;100.00;99769.50;5024410;28;20044;-74
2023/01/13 09:49:21;;;;;;;4.95;1.15;;;;;;;9.59;100.00;99762.72;5058636;28;19913;-72
2023/01/13 09:52:13;;;;;;;2.20;1.35;;;;;;;9.45;100.00;99757.88;5065923;28;20473;-74
2023/01/13 09:55:01;;;;;;;3.55;1.30;;;;;;;9.24;100.00;99762.00;5055615;28;20385;-72
2023/01/13 09:57:43;;;;;;;5.63;2.10;;;;;;;9.06;100.00;99767.94;5056577;28;20512;-73
2023/01/13 10:00:21;;;;;;;2.65;1.25;;;;;;;8.99;100.00;99769.16;5056938;28;20037;-72
2023/01/13 10:02:49;;;;;;;7.15;1.67;;;;;;;8.97;100.00;99765.22;5056978;28;20028;-75
2023/01/13 10:05:40;;;;;;;1.92;1.20;;;;;;;9.05;100.00;99766.41;5074924;28;20081;-74
2023/01/13 10:08:19;;;;;;;1.73;1.23;;;;;;;9.15;100.00;99757.19;5056949;28;20020;-71
2023/01/13 10:10:57;;;;;;;5.05;1.33;;;;;;;9.23;100.00;99751.88;5054200;28;20508;-73
2023/01/13 10:13:26;;;;;;;2.80;1.15;;;;;;;9.45;100.00;99751.38;5095045;28;20078;-72
2023/01/13 10:16:19;;;;;;;2.63;1.50;;;;;;;9.52;100.00;99750.97;5095186;28;20077;-75
2023/01/13 10:19:03;;;;;;;2.78;1.17;;;;;;;9.69;100.00;99747.03;5094538;28;20107;-75
2023/01/13 10:21:57;;;;;;;2.53;1.27;;;;;;;9.82;100.00;99749.56;5094669;28;20036;-73
2023/01/13 10:25:00;;;;;;;4.10;1.70;;;;;;;10.02;100.00;99738.09;5094579;28;20036;-75
2023/01/13 10:27:45;;;;;;;2.90;1.60;;;;;;;10.20;100.00;99734.13;5072852;28;20045;-74
2023/01/13 10:30:21;;;;;;;7.63;1.85;;;;;;;10.27;100.00;99732.91;5072766;28;20031;-75
2023/01/13 10:32:58;;;;;;;2.97;1.55;;;;;;;10.34;100.00;99727.50;5054543;28;20104;-73
2023/01/13 10:36:03;;;;;;;2.40;1.48;;;;;;;10.47;100.00;99727.09;5053008;28;20032;-73
2023/01/13 10:39:05;;;;;;;3.60;1.83;;;;;;;10.47;100.00;99735.69;5053151;28;20033;-72
2023/01/13 10:41:35;;;;;;;7.90;2.33;;;;;;;10.63;100.00;99731.41;5054115;28;20466;-72
2023/01/13 10:44:19;;;;;;;3.05;1.65;;;;;;;10.76;100.00;99726.03;5036511;28;20116;-71
2023/01/13 10:46:56;;;;;;;4.53;2.08;;;;;;;10.85;100.00;99723.75;5054031;28;20543;-72
2023/01/13 10:49:37;;;;;;;4.28;1.48;;;;;;;10.90;100.00;99710.78;5052978;28;20098;-72
2023/01/13 10:52:25;;;;;;;7.00;1.73;;;;;;;10.86;100.00;99713.91;5052559;28;20057;-73
2023/01/13 10:54:52;;;;;;;3.92;1.45;;;;;;;10.96;100.00;99714.47;5053652;28;20035;-72
2023/01/13 10:57:30;;;;;;;1.60;1.50;;;;;;;10.87;100.00;99709.75;5052597;28;20037;-73
2023/01/13 10:59:57;;;;;;;1.92;1.13;;;;;;;10.74;100.00;99708.59;5052440;28;20111;-75
2023/01/13 11:02:34;;;;;;;4.45;1.55;;;;;;;10.70;100.00;99705.97;5052815;28;20041;-72
2023/01/13 11:05:27;;;;;;;6.32;1.75;;;;;;;10.74;100.00;99709.38;5052318;28;20037;-71
2023/01/13 11:07:55;;;;;;;7.78;1.52;;;;;;;10.65;100.00;99705.94;5052284;28;20056;-81
2023/01/13 11:10:27;;;;;;;1.75;1.40;;;;;;;10.62;100.00;99709.81;5070625;28;20025;-76
2023/01/13 11:12:58;;;;;;;2.83;1.20;;;;;;;10.58;100.00;99712.88;5072323;28;20470;-76
2023/01/13 11:15:54;;;;;;;2.38;1.40;;;;;;;10.64;100.00;99699.44;5072078;28;20047;-78
2023/01/13 11:19:00;;;;;;;4.50;1.48;;;;;;;10.69;100.00;99701.56;5072182;28;20045;-75
2023/01/13 11:21:58;;;;;;;1.88;1.55;;;;;;;10.71;100.00;99701.84;5073685;28;20029;-79
2023/01/13 11:24:49;;;;;;;1.40;1.10;;;;;;;10.81;100.00;99708.13;5071635;28;20491;-78
2023/01/13 11:27:29;;;;;;;3.70;1.67;;;;;;;10.94;100.00;99700.69;5085570;28;20044;-77
2023/01/13 11:30:35;;;;;;;5.97;1.90;;;;;;;11.03;100.00;99690.31;5092993;28;20468;-77
2023/01/13 11:33:19;;;;;;;3.83;1.25;;;;;;;11.06;100.00;99684.38;5093694;28;20441;-77
2023/01/13 11:36:08;;;;;;;5.30;2.10;;;;;;;11.22;100.00;99691.53;5075241;28;20055;-73
2023/01/13 11:38:44;;;;;;;1.60;1.30;;;;;;;11.29;100.00;99685.31;5080233;28;20111;-73
2023/01/13 11:41:21;;;;;;;2.08;1.25;;;;;;;11.19;100.00;99679.03;5075074;28;20028;-73
2023/01/13 11:44:12;;;;;;;5.22;2.15;;;;;;;11.12;100.00;99684.44;5086996;28;20098;-70
2023/01/13 11:46:48;;;;;;;4.32;1.40;;;;;;;11.05;100.00;99684.91;5092581;28;20110;-70
2023/01/13 11:49:26;;;;;;;3.63;1.30;;;;;;;11.09;100.00;99682.56;5092433;28;20031;-68
2023/01/13 11:52:06;;;;;;;7.13;2.50;;;;;;;11.18;100.00;99679.53;5092674;28;20395;-69
2023/01/13 11:54:46;;;;;;;9.88;1.92;;;;;;;11.23;100.00;99682.41;5089605;28;20038;-70
2023/01/13 11:57:45;;;;;;;3.60;1.50;;;;;;;11.15;100.00;99681.34;5075019;28;20035;-70
2023/01/13 12:00:49;;;;;;;5.13;1.90;;;;;;;11.15;100.00;99684.19;5079497;28;20043;-70
2023/01/13 12:03:36;;;;;;;2.20;1.45;;;;;;;11.05;100.00;99679.16;5053318;28;20123;-71
2023/01/13 12:06:38;;;;;;;2.20;1.60;;;;;;;10.88;100.00;99670.50;5066665;28;20079;-70
2023/01/13 12:09:26;;;;;;;7.00;2.00;;;;;;;10.78;100.00;99674.84;5062915;28;20051;-72
2023/01/13 12:12:26;;;;;;;3.20;1.60;;;;;;;10.71;100.00;99670.41;5067416;28;20041;-69
2023/01/13 12:15:24;;;;;;;4.50;2.47;;;;;;;10.76;100.00;99674.59;5074698;28;20035;-74
2023/01/13 12:18:15;;;;;;;5.28;1.75;;;;;;;10.70;100.00;99676.63;5060478;28;20583;-76
2023/01/13 12:21:19;;;;;;;4.03;1.40;;;;;;;10.77;100.00;99674.09;5102348;28;20040;-72
2023/01/13 12:23:57;;;;;;;3.58;1.60;;;;;;;10.79;100.00;99665.78;5084096;28;20040;-71
2023/01/13 12:26:30;;;;;;;10.48;2.03;;;;;;;10.75;100.00;99681.59;5096898;28;20052;-71
2023/01/13 12:29:11;;;;;;;5.20;1.30;;;;;;;10.81;100.00;99679.56;5093445;28;20039;-71
2023/01/13 12:31:39;;;;;;;5.00;1.80;;;;;;;10.81;100.00;99680.34;5058259;28;20038;-73
2023/01/13 12:34:43;;;;;;;3.42;1.77;;;;;;;10.83;100.00;99680.59;5042173;28;20047;-73
2023/01/13 12:37:16;;;;;;;2.20;1.60;;;;;;;10.82;100.00;99676.19;5074672;28;20112;-75
2023/01/13 12:39:56;;;;;;;3.25;1.58;;;;;;;10.79;100.00;99671.47;5095949;28;20060;-74
2023/01/13 12:45:39;;;;;;;7.53;2.67;;;;;;;10.94;100.00;99668.47;5096898;28;20043;-78
2023/01/13 12:48:06;;;;;;;4.65;2.00;;;;;;;10.93;100.00;99664.81;5078615;28;20043;-76
2023/01/13 12:50:40;;;;;;;5.82;1.60;;;;;;;10.82;100.00;99669.69;5096455;28;20028;-76
2023/01/13 12:53:28;;;;;;;2.67;1.65;;;;;;;10.77;100.00;99668.38;5061665;28;20032;-77